Tucson, AZ

1:03 AM MST on September 18, 2014 (GMT -0700)
Drexel Heights | Change Station
CLOSE
Current Station
Personal Weather Station
Location: Tucson, AZ
Elevation: 2480 ft
Nearby Weather Stations

Elev 2480 ft 32.15 °N, 111.02 °W | Updated 3 seconds ago

Overcast
Overcast
72.3 °F
Feels Like 72 °F
N
0.9
Wind Variable Wind from SSW
Gusts 2.0 mph

Today
High -- | Low -- °F
--% Chance of Precip.
Yesterday
High -- | Low -- °F
Precip. -- in
6:09 AM 6:25 PM
Waning Crescent, 29% visible
Pressure 29.71 in
Visibility 10.0 miles
Clouds Scattered Clouds 4600 ft
Mostly Cloudy 6500 ft
Overcast 9000 ft
Heat Index 72 °F
Dew Point 67 °F
Humidity 83%
Rainfall 0.00 in
Snow Depth Not available.
UV 0.0 out of 12
Pollen .90 out of 12
Air Quality Not available.
Flu Activity Not available.
METAR KTUS 180753Z 15007KT 10SM SCT046 BKN065 OVC090 23/19 A2984 RMK AO2 SLP061 T02330189

More Conditions Fewer Conditions

Pressure 29.71 in
Visibility 10.0 miles
Clouds Scattered Clouds 4600 ft
Mostly Cloudy 6500 ft
Overcast 9000 ft
Heat Index 72 °F
Dew Point 67 °F
Humidity 83%
Rainfall 0.00 in
Snow Depth Not available.
UV 0.0 out of 12
Pollen .90 out of 12
Air Quality Not available.
Flu Activity Not available.
METAR KTUS 180753Z 15007KT 10SM SCT046 BKN065 OVC090 23/19 A2984 RMK AO2 SLP061 T02330189

More Conditions Fewer Conditions

10-Day Weather Forecast

Almanac

Astronomy

Sep. 18, 2014 Rise Set
Actual Time 6:09 AM MST 6:25 PM MST
Civil Twilight 5:45 AM MST 6:50 PM MST
Nautical Twilight 5:16 AM MST 7:18 PM MST
Astronomical Twilight 4:47 AM MST 7:47 PM MST
Moon 1:18 AM MST 3:06 PM MST
Length of Visible Light 13h 05m
Length of Day
12h 16m
Tomorrow will be 1m 57s shorter.
Waning Crescent, 29% of the Moon is Illuminated
Today
Waning Crescent
Sep 24
New
Oct 1
First Quarter
Oct 8
Full
Oct 15
Last Quarter

Today's Extremes

State Highs State Lows

Community

WunderPhotos

Upload Photos

1,754,306 photos uploaded!

Nearby

Snow Depth

Station Depth Elevation
Wildcat 0 in 7850 ft
White Horse Lake 0 in 7180 ft
Workman Creek 2 in 6900 ft
Snowslide Canyon 0 in 9730 ft
Promontory 0 in 7930 ft

Earthquake Activity

City Distance Mag. Time & Date
Lordsburg, New Mexico 108 miles 3.5 4:55 AM MST
2014-09-15
Minimum magnitude displayed is 2.5.

Coastal Water Temperatures

Place Temperature
No Stations Reporting

Nearby Weather Stations